Time;durP1;ratioP1;P1;durP2;ratioP2;P2;SDS_P1;SDS_P2;PMS_P1;PMS_P2;Temp;Humidity;BMP_temperature;BMP_pressure;BME280_temperature;BME280_humidity;BME280_pressure;Samples;Min_cycle;Max_cycle;Signal;HPM_P1;HPM_P2
2022/10/25 00:00:39;;;;;;;3.38;1.08;;;;;;;12.79;81.33;98516.25;4997149;28;20128;-78
2022/10/25 00:03:10;;;;;;;3.35;1.40;;;;;;;12.66;82.55;98516.78;5008743;28;20037;-78
2022/10/25 00:05:35;;;;;;;9.77;2.60;;;;;;;12.41;84.11;98514.13;5006456;28;20036;-78
2022/10/25 00:08:02;;;;;;;2.65;1.33;;;;;;;12.41;83.72;98508.78;5015157;28;20029;-77
2022/10/25 00:10:27;;;;;;;3.20;1.05;;;;;;;12.76;81.57;98514.09;4990842;28;20116;-77
2022/10/25 00:12:53;;;;;;;4.65;1.10;;;;;;;12.69;81.99;98508.22;4995396;28;20376;-77
2022/10/25 00:15:18;;;;;;;5.80;1.13;;;;;;;12.70;82.13;98505.28;5013636;28;20261;-80
2022/10/25 00:17:44;;;;;;;4.75;1.70;;;;;;;12.67;81.98;98518.38;5013581;28;20026;-79
2022/10/25 00:20:11;;;;;;;2.90;1.33;;;;;;;12.67;82.23;98508.47;5012775;28;20108;-80
2022/10/25 00:22:37;;;;;;;3.42;1.85;;;;;;;12.62;82.33;98507.69;4997175;28;20022;-80
2022/10/25 00:25:03;;;;;;;7.13;2.10;;;;;;;12.62;82.66;98495.09;5013882;28;20033;-78
2022/10/25 00:27:29;;;;;;;4.32;1.90;;;;;;;12.74;82.02;98502.84;5013737;28;20033;-77
2022/10/25 00:29:54;;;;;;;6.97;2.40;;;;;;;12.72;82.29;98510.34;5018695;28;20041;-77
2022/10/25 00:32:20;;;;;;;4.60;2.22;;;;;;;12.62;82.54;98513.06;5010972;28;20034;-77
2022/10/25 00:34:45;;;;;;;6.97;2.35;;;;;;;12.51;83.33;98508.78;5015814;28;20552;-77
2022/10/25 00:37:10;;;;;;;9.35;2.60;;;;;;;12.55;82.86;98507.97;4997400;28;20046;-77
2022/10/25 00:39:36;;;;;;;7.30;2.65;;;;;;;12.52;83.78;98505.03;5017663;28;20113;-77
2022/10/25 00:42:01;;;;;;;11.00;2.70;;;;;;;12.50;83.72;98510.66;5010890;28;20034;-77
2022/10/25 00:44:32;;;;;;;9.32;3.13;;;;;;;12.61;83.05;98512.25;5011862;28;20034;-77
2022/10/25 00:46:58;;;;;;;12.93;2.85;;;;;;;12.51;83.93;98514.94;4995162;28;20129;-77
2022/10/25 00:49:23;;;;;;;12.40;2.47;;;;;;;12.54;83.73;98517.06;4993177;28;20140;-77
2022/10/25 00:51:55;;;;;;;6.07;1.98;;;;;;;12.62;83.32;98510.38;5015777;28;20036;-77
2022/10/25 00:54:38;;;;;;;8.15;2.25;;;;;;;12.67;82.89;98507.69;5010134;28;20033;-77
2022/10/25 00:57:10;;;;;;;9.98;2.83;;;;;;;12.62;83.34;98508.47;4993409;28;20029;-77
2022/10/25 00:59:37;;;;;;;9.80;2.70;;;;;;;12.52;83.64;98516.53;5011361;28;20042;-77
2022/10/25 01:02:02;;;;;;;7.47;2.20;;;;;;;12.59;83.45;98522.44;4998425;28;20025;-77
2022/10/25 01:04:30;;;;;;;9.82;2.88;;;;;;;12.57;83.78;98519.22;5009245;28;20076;-77
2022/10/25 01:06:56;;;;;;;9.80;3.53;;;;;;;12.61;83.08;98516.78;5013150;28;20041;-77
2022/10/25 01:09:28;;;;;;;7.13;2.20;;;;;;;12.51;83.80;98516.81;4998234;28;20030;-77
2022/10/25 01:11:54;;;;;;;9.48;2.20;;;;;;;12.58;83.61;98526.16;5006525;28;20038;-77
2022/10/25 01:14:20;;;;;;;9.48;2.72;;;;;;;12.60;83.37;98528.59;5008779;28;20053;-77
2022/10/25 01:17:04;;;;;;;13.60;2.92;;;;;;;12.57;83.88;98521.09;5013599;28;20030;-77
2022/10/25 01:20:05;;;;;;;8.27;2.92;;;;;;;12.66;83.54;98522.16;5010044;28;20486;-78
2022/10/25 01:22:52;;;;;;;11.30;2.55;;;;;;;12.55;83.79;98523.22;5013977;28;20021;-78
2022/10/25 01:25:24;;;;;;;9.68;2.28;;;;;;;12.62;83.59;98518.41;4992712;28;20044;-78
2022/10/25 01:28:08;;;;;;;9.52;2.35;;;;;;;12.56;83.71;98522.16;5015341;28;20026;-78
2022/10/25 01:30:46;;;;;;;11.10;3.05;;;;;;;12.62;83.27;98521.88;5012898;28;20044;-78
2022/10/25 01:33:31;;;;;;;7.30;2.70;;;;;;;12.49;83.95;98527.00;5006195;28;20064;-78
2022/10/25 01:36:05;;;;;;;11.27;2.92;;;;;;;12.56;83.46;98514.09;5010346;28;20040;-78
2022/10/25 01:38:46;;;;;;;10.15;2.08;;;;;;;12.63;83.20;98522.69;5010019;28;20029;-79
2022/10/25 01:41:46;;;;;;;10.25;2.63;;;;;;;12.60;83.27;98517.88;4988286;28;20041;-79
2022/10/25 01:44:20;;;;;;;14.50;2.58;;;;;;;12.46;83.99;98512.25;5013960;28;20033;-79
2022/10/25 01:47:20;;;;;;;8.27;1.83;;;;;;;12.54;83.26;98518.94;5016717;28;20037;-80
2022/10/25 01:49:51;;;;;;;10.02;3.17;;;;;;;12.45;84.10;98513.31;5010498;28;20080;-79
2022/10/25 01:52:20;;;;;;;6.93;1.98;;;;;;;12.46;83.53;98516.81;5014152;28;20026;-80
2022/10/25 01:54:45;;;;;;;7.93;2.08;;;;;;;12.36;83.75;98508.78;4995403;28;20054;-80
2022/10/25 01:57:10;;;;;;;10.88;2.38;;;;;;;12.34;84.31;98517.06;4994435;28;20110;-78
2022/10/25 01:59:54;;;;;;;10.68;2.17;;;;;;;12.31;84.37;98530.19;4995688;28;20560;-79
2022/10/25 02:02:25;;;;;;;6.15;1.95;;;;;;;12.42;84.05;98529.13;5011535;28;20437;-79
2022/10/25 02:05:36;;;;;;;5.22;1.85;;;;;;;12.26;84.45;98527.50;5012707;28;20030;-80
2022/10/25 02:08:17;;;;;;;13.35;2.33;;;;;;;12.32;84.54;98523.78;4955861;28;20050;-79
2022/10/25 02:11:04;;;;;;;4.72;2.20;;;;;;;12.44;84.38;98525.13;4997839;28;20034;-79
2022/10/25 02:13:42;;;;;;;9.45;2.38;;;;;;;12.40;84.29;98529.41;5011481;28;20034;-79
2022/10/25 02:16:11;;;;;;;8.77;2.63;;;;;;;12.42;84.03;98523.78;4997144;28;20084;-80
2022/10/25 02:18:43;;;;;;;7.93;2.50;;;;;;;12.34;84.60;98524.31;4998402;28;20633;-77
2022/10/25 02:21:11;;;;;;;13.60;2.65;;;;;;;12.25;85.09;98528.59;5014510;28;20034;-79
2022/10/25 02:23:38;;;;;;;5.07;1.90;;;;;;;12.46;84.21;98530.19;5008559;28;20120;-78
2022/10/25 02:26:06;;;;;;;4.32;1.52;;;;;;;12.51;83.85;98531.00;5024159;28;20033;-77
2022/10/25 02:28:35;;;;;;;13.60;2.90;;;;;;;12.37;84.13;98537.94;5006407;28;20117;-78
2022/10/25 02:31:01;;;;;;;6.85;3.03;;;;;;;12.42;83.99;98532.59;5006254;28;20037;-77
2022/10/25 02:33:26;;;;;;;9.65;2.85;;;;;;;12.44;83.93;98533.16;5022212;28;20034;-79
2022/10/25 02:36:10;;;;;;;8.52;1.70;;;;;;;12.33;84.40;98538.75;5004496;28;20103;-79
2022/10/25 02:38:36;;;;;;;10.45;2.42;;;;;;;12.39;84.30;98537.69;5001142;28;20056;-78
2022/10/25 02:41:04;;;;;;;8.27;3.22;;;;;;;12.36;84.39;98544.38;5023590;28;20065;-77
2022/10/25 02:43:30;;;;;;;9.65;2.42;;;;;;;12.29;84.69;98540.34;5024792;28;20060;-77
2022/10/25 02:45:55;;;;;;;7.22;2.20;;;;;;;12.13;85.08;98541.41;5012790;28;20045;-77
2022/10/25 02:48:20;;;;;;;9.30;2.58;;;;;;;12.16;85.24;98543.56;4983619;28;20084;-80
2022/10/25 02:50:47;;;;;;;11.45;2.40;;;;;;;12.32;84.80;98547.88;5010489;28;20029;-79
2022/10/25 02:53:12;;;;;;;10.88;3.75;;;;;;;12.16;85.42;98543.56;4993282;28;20039;-79
2022/10/25 02:55:37;;;;;;;6.40;2.08;;;;;;;12.26;84.78;98551.59;5010617;28;20386;-78
2022/10/25 02:58:03;;;;;;;8.07;1.98;;;;;;;12.31;84.96;98548.91;4994071;28;21556;-77
2022/10/25 03:00:28;;;;;;;11.90;3.05;;;;;;;12.03;85.68;98552.91;5018581;28;20066;-78
2022/10/25 03:02:54;;;;;;;8.32;2.30;;;;;;;12.11;85.75;98559.59;5010686;28;20025;-80
2022/10/25 03:05:19;;;;;;;7.40;2.88;;;;;;;12.05;86.11;98550.78;4979793;28;20033;-80
2022/10/25 03:07:44;;;;;;;13.07;2.53;;;;;;;12.05;86.27;98548.09;4999047;28;20030;-80
2022/10/25 03:10:10;;;;;;;9.98;2.10;;;;;;;12.13;86.06;98552.09;5013013;28;20033;-79
2022/10/25 03:12:35;;;;;;;24.58;2.75;;;;;;;12.11;86.38;98557.72;5013359;28;20542;-76
2022/10/25 03:15:00;;;;;;;11.20;2.28;;;;;;;12.26;85.40;98555.06;5014834;28;20041;-77
2022/10/25 03:17:26;;;;;;;7.70;2.88;;;;;;;12.32;85.34;98547.88;4998044;28;20038;-82
2022/10/25 03:19:51;;;;;;;8.70;2.17;;;;;;;12.34;85.16;98553.75;5002510;28;20037;-83
2022/10/25 03:22:16;;;;;;;8.68;2.30;;;;;;;12.37;85.22;98553.19;5004552;28;20037;-78
2022/10/25 03:24:42;;;;;;;10.18;2.97;;;;;;;12.34;85.50;98554.53;5014222;28;20037;-78
2022/10/25 03:27:07;;;;;;;10.45;2.40;;;;;;;12.36;85.07;98563.09;4996566;28;20033;-78
2022/10/25 03:29:33;;;;;;;8.68;2.47;;;;;;;12.36;85.34;98565.00;5019861;28;20034;-77
2022/10/25 03:31:58;;;;;;;10.68;3.25;;;;;;;12.13;86.38;98565.47;5017705;28;20169;-78
2022/10/25 03:34:24;;;;;;;7.45;2.50;;;;;;;12.16;85.51;98559.59;5014583;28;20076;-78
2022/10/25 03:36:51;;;;;;;7.85;2.42;;;;;;;12.14;85.76;98562.56;4997260;28;20033;-76
2022/10/25 03:39:16;;;;;;;12.65;2.67;;;;;;;12.25;85.40;98566.84;5019772;28;20406;-78
2022/10/25 03:41:41;;;;;;;8.70;2.65;;;;;;;12.21;85.17;98565.75;4997877;28;20029;-78
2022/10/25 03:44:07;;;;;;;12.77;2.22;;;;;;;12.31;85.02;98573.00;5012169;28;20022;-78
2022/10/25 03:46:32;;;;;;;6.57;2.72;;;;;;;12.25;85.53;98579.44;5012892;28;20034;-78
2022/10/25 03:48:57;;;;;;;5.03;1.95;;;;;;;12.33;84.61;98570.88;4993818;28;20042;-77
2022/10/25 03:51:23;;;;;;;7.32;2.40;;;;;;;12.25;85.37;98576.75;5011260;28;20076;-78
2022/10/25 03:53:49;;;;;;;9.50;2.75;;;;;;;12.19;85.55;98573.25;5013480;28;20030;-78
2022/10/25 03:56:14;;;;;;;18.20;2.67;;;;;;;12.17;85.84;98586.09;5000729;28;20041;-77
2022/10/25 03:58:40;;;;;;;7.13;2.33;;;;;;;12.27;85.51;98596.84;4991992;28;20026;-76
2022/10/25 04:01:08;;;;;;;7.07;2.50;;;;;;;12.21;85.53;98584.50;5014661;28;20432;-78
2022/10/25 04:03:34;;;;;;;10.23;2.33;;;;;;;12.26;85.38;98581.84;5015438;28;20028;-78
2022/10/25 04:05:59;;;;;;;8.35;2.53;;;;;;;12.18;85.94;98594.94;5011593;28;20950;-78
2022/10/25 04:08:25;;;;;;;7.28;2.20;;;;;;;12.28;85.81;98594.94;4995788;28;20042;-78
2022/10/25 04:10:50;;;;;;;5.80;1.80;;;;;;;12.19;86.12;98591.19;4991695;28;20029;-76
2022/10/25 04:13:15;;;;;;;6.75;2.78;;;;;;;12.22;85.95;98594.13;5012770;28;20042;-78
2022/10/25 04:15:41;;;;;;;6.55;2.20;;;;;;;12.23;86.06;98597.63;5011227;28;20442;-80
2022/10/25 04:18:06;;;;;;;8.27;2.47;;;;;;;12.20;86.29;98593.59;5014254;28;20029;-78
2022/10/25 04:20:31;;;;;;;9.13;2.42;;;;;;;12.39;85.43;98601.91;5012994;28;20026;-78
2022/10/25 04:22:57;;;;;;;12.77;2.35;;;;;;;12.27;86.04;98601.38;5018683;28;20101;-79
2022/10/25 04:25:25;;;;;;;6.20;2.58;;;;;;;12.27;86.06;98596.03;4989172;28;20116;-78
2022/10/25 04:27:50;;;;;;;7.47;2.25;;;;;;;12.38;85.29;98601.13;5011966;28;20101;-77
2022/10/25 04:30:16;;;;;;;8.65;2.28;;;;;;;12.34;85.53;98600.03;5011484;28;20095;-78
2022/10/25 04:32:42;;;;;;;3.92;1.75;;;;;;;12.37;85.47;98602.19;5010471;28;20398;-78
2022/10/25 04:35:08;;;;;;;6.88;2.25;;;;;;;12.37;85.31;98604.88;4998220;28;20391;-78
2022/10/25 04:37:33;;;;;;;5.47;2.30;;;;;;;12.27;85.75;98610.22;5015113;28;20026;-76
2022/10/25 04:39:59;;;;;;;6.82;2.97;;;;;;;12.36;85.76;98616.63;5011598;28;20544;-77
2022/10/25 04:42:24;;;;;;;7.03;2.03;;;;;;;12.34;86.05;98604.59;5010512;28;20037;-76
2022/10/25 04:44:49;;;;;;;7.07;2.22;;;;;;;12.21;86.41;98605.91;5009841;28;20034;-76
2022/10/25 04:47:15;;;;;;;7.78;2.17;;;;;;;12.17;86.85;98610.16;5010936;28;20479;-77
2022/10/25 04:49:40;;;;;;;6.60;2.63;;;;;;;12.12;87.04;98607.50;5008732;28;20033;-77
2022/10/25 04:52:05;;;;;;;7.57;2.33;;;;;;;12.39;85.64;98604.59;5008791;28;20407;-77
2022/10/25 04:54:31;;;;;;;6.28;2.30;;;;;;;12.27;86.06;98610.22;5008792;28;20116;-77
2022/10/25 04:56:56;;;;;;;6.40;1.90;;;;;;;12.32;86.18;98612.09;5011012;28;20064;-78
2022/10/25 04:59:22;;;;;;;7.63;2.78;;;;;;;12.27;86.23;98615.56;5010574;28;20037;-78
2022/10/25 05:01:47;;;;;;;8.07;2.75;;;;;;;12.29;85.71;98610.75;5012176;28;20025;-78
2022/10/25 05:04:12;;;;;;;8.63;2.75;;;;;;;12.29;86.03;98617.97;4995417;28;20026;-78
2022/10/25 05:06:38;;;;;;;8.60;2.00;;;;;;;12.32;85.88;98622.81;4993367;28;20099;-79
2022/10/25 05:09:03;;;;;;;6.22;2.25;;;;;;;12.25;86.29;98612.34;4998526;28;20026;-78
2022/10/25 05:11:29;;;;;;;5.05;2.45;;;;;;;12.25;86.10;98614.22;5015708;28;20487;-77
2022/10/25 05:13:55;;;;;;;7.60;2.45;;;;;;;12.18;86.72;98616.34;4999884;28;20057;-76
2022/10/25 05:16:23;;;;;;;6.03;2.30;;;;;;;12.21;86.42;98623.84;5016303;28;20036;-77
2022/10/25 05:18:50;;;;;;;7.00;2.67;;;;;;;12.15;86.88;98617.66;5012971;28;20079;-78
2022/10/25 05:21:16;;;;;;;7.68;3.17;;;;;;;12.18;87.07;98619.00;5012260;28;20038;-78
2022/10/25 05:23:42;;;;;;;7.88;3.17;;;;;;;12.17;86.58;98626.22;5010664;28;20109;-78
2022/10/25 05:26:10;;;;;;;11.48;3.22;;;;;;;12.17;86.91;98620.06;5012088;28;20121;-78
2022/10/25 05:28:37;;;;;;;8.30;2.47;;;;;;;12.17;86.27;98617.38;5017051;28;20036;-78
2022/10/25 05:31:14;;;;;;;8.80;2.50;;;;;;;12.21;86.59;98623.84;5014258;28;20022;-78
2022/10/25 05:33:43;;;;;;;5.00;2.10;;;;;;;12.17;86.49;98623.56;5008136;28;20398;-78
2022/10/25 05:36:09;;;;;;;11.48;2.88;;;;;;;12.23;86.47;98635.09;4993709;28;20168;-77
2022/10/25 05:38:34;;;;;;;7.10;2.45;;;;;;;12.28;86.41;98643.09;5013162;28;20072;-78
2022/10/25 05:41:00;;;;;;;7.05;2.35;;;;;;;12.17;86.56;98641.47;5010964;28;20439;-76
2022/10/25 05:43:25;;;;;;;5.32;2.40;;;;;;;12.19;86.78;98636.69;5006682;28;20034;-77
2022/10/25 05:45:59;;;;;;;6.30;1.95;;;;;;;12.23;86.39;98630.50;5008803;28;20032;-77
2022/10/25 05:48:25;;;;;;;10.73;2.47;;;;;;;12.18;86.53;98643.09;5013116;28;20060;-77
2022/10/25 05:50:51;;;;;;;9.38;2.55;;;;;;;12.16;86.72;98647.91;5010403;28;20486;-76
2022/10/25 05:53:16;;;;;;;7.57;2.47;;;;;;;12.11;87.22;98648.69;5007359;28;20041;-77
2022/10/25 05:55:42;;;;;;;6.65;2.40;;;;;;;12.10;87.07;98652.41;5008992;28;20034;-76
2022/10/25 05:58:07;;;;;;;7.88;2.50;;;;;;;12.13;86.94;98646.56;4992556;28;20030;-76
2022/10/25 06:00:33;;;;;;;8.60;2.85;;;;;;;12.29;86.59;98660.78;5006116;28;20029;-75
2022/10/25 06:03:01;;;;;;;7.45;2.97;;;;;;;12.25;86.41;98659.72;5009717;28;20502;-76
2022/10/25 06:05:27;;;;;;;5.45;2.65;;;;;;;12.29;86.40;98661.59;5009310;28;20041;-74
2022/10/25 06:07:53;;;;;;;6.18;2.50;;;;;;;12.21;87.14;98663.97;5011168;28;20029;-76
2022/10/25 06:10:18;;;;;;;11.00;2.72;;;;;;;12.21;87.55;98682.72;5007264;28;20065;-78
2022/10/25 06:12:44;;;;;;;11.45;2.97;;;;;;;12.22;86.96;98677.09;5008217;28;20128;-77
2022/10/25 06:15:09;;;;;;;6.82;2.90;;;;;;;12.26;87.04;98674.69;5006198;28;20137;-78
2022/10/25 06:17:35;;;;;;;4.50;2.63;;;;;;;12.27;86.99;98678.97;5010943;28;20128;-78
2022/10/25 06:20:01;;;;;;;8.95;2.70;;;;;;;12.21;87.60;98686.16;5008513;28;20034;-78
2022/10/25 06:22:26;;;;;;;7.28;2.10;;;;;;;12.32;87.05;98681.69;4995209;28;20053;-78
2022/10/25 06:24:51;;;;;;;9.90;2.30;;;;;;;12.30;87.08;98684.59;5016043;28;20030;-77
2022/10/25 06:27:17;;;;;;;3.92;2.30;;;;;;;12.20;87.91;98686.44;5010466;28;20034;-77
2022/10/25 06:29:42;;;;;;;4.13;1.98;;;;;;;12.21;87.33;98690.75;4989787;28;20181;-76
2022/10/25 06:32:07;;;;;;;10.25;2.80;;;;;;;12.21;87.88;98696.88;5010964;28;20437;-75
2022/10/25 06:34:33;;;;;;;4.45;2.65;;;;;;;12.26;88.04;98704.13;5004911;28;20117;-75
2022/10/25 06:36:58;;;;;;;5.88;2.50;;;;;;;12.19;87.84;98708.94;5007500;28;20392;-75
2022/10/25 06:39:23;;;;;;;6.40;2.45;;;;;;;12.15;88.38;98710.50;4989975;28;20156;-75
2022/10/25 06:41:49;;;;;;;6.93;3.13;;;;;;;12.12;88.61;98721.75;5012462;28;20028;-75
2022/10/25 06:44:14;;;;;;;8.30;2.47;;;;;;;12.17;88.62;98717.19;5009226;28;20117;-78
2022/10/25 06:46:40;;;;;;;9.02;2.70;;;;;;;12.24;87.83;98722.31;5010084;28;20066;-78
2022/10/25 06:49:06;;;;;;;7.53;2.40;;;;;;;12.34;87.74;98719.69;5000999;28;20030;-77
2022/10/25 06:51:33;;;;;;;6.50;2.45;;;;;;;12.29;87.98;98719.66;5008618;28;20061;-78
2022/10/25 06:54:00;;;;;;;10.13;2.85;;;;;;;12.29;88.03;98716.97;5005547;28;20033;-78
2022/10/25 06:56:27;;;;;;;14.95;3.75;;;;;;;12.21;88.76;98717.50;4992526;28;20029;-78
2022/10/25 06:58:53;;;;;;;4.55;2.38;;;;;;;12.35;88.20;98730.13;5007666;28;20250;-78
2022/10/25 07:01:20;;;;;;;6.72;2.33;;;;;;;12.29;88.29;98725.81;4977786;28;20613;-79
2022/10/25 07:03:49;;;;;;;6.57;2.10;;;;;;;12.43;87.99;98736.81;4993283;28;20060;-79
2022/10/25 07:06:17;;;;;;;9.85;2.55;;;;;;;12.39;87.87;98730.38;4997967;28;20064;-79
2022/10/25 07:08:45;;;;;;;10.35;2.45;;;;;;;12.44;87.88;98731.22;5013730;28;20030;-79
2022/10/25 07:11:19;;;;;;;9.00;3.53;;;;;;;12.41;87.83;98739.78;5010447;28;20097;-79
2022/10/25 07:13:45;;;;;;;3.72;2.15;;;;;;;12.45;87.27;98737.38;5008647;28;20040;-78
2022/10/25 07:16:13;;;;;;;5.47;2.38;;;;;;;12.50;87.75;98742.75;5005502;28;20029;-78
2022/10/25 07:18:39;;;;;;;7.63;2.95;;;;;;;12.43;87.96;98744.84;4987505;28;20041;-79
2022/10/25 07:21:11;;;;;;;8.88;3.15;;;;;;;12.28;89.00;98747.47;5004068;28;20040;-79
2022/10/25 07:23:42;;;;;;;7.20;2.58;;;;;;;12.44;88.49;98741.13;4984778;28;20057;-78
2022/10/25 07:26:26;;;;;;;6.13;2.55;;;;;;;12.38;88.43;98751.03;4971495;28;20049;-78
2022/10/25 07:28:53;;;;;;;9.60;2.72;;;;;;;12.36;88.79;98753.13;5005569;28;20040;-78
2022/10/25 07:31:24;;;;;;;6.60;2.50;;;;;;;12.43;88.69;98753.69;5004222;28;20114;-78
2022/10/25 07:33:52;;;;;;;7.97;2.80;;;;;;;12.36;88.74;98752.34;5010821;28;20774;-78
2022/10/25 07:36:18;;;;;;;8.20;3.30;;;;;;;12.18;89.53;98761.63;5014906;28;20032;-78
2022/10/25 07:38:43;;;;;;;10.95;2.33;;;;;;;12.44;88.55;98762.53;5012806;28;20034;-79
2022/10/25 07:41:09;;;;;;;9.05;2.17;;;;;;;12.48;87.91;98763.63;5014259;28;20041;-79
2022/10/25 07:43:36;;;;;;;8.40;2.50;;;;;;;12.47;88.30;98759.34;5018477;28;20049;-78
2022/10/25 07:46:02;;;;;;;5.30;2.28;;;;;;;12.57;87.63;98759.38;5015487;28;20041;-79
2022/10/25 07:48:28;;;;;;;4.72;2.10;;;;;;;12.50;87.90;98769.50;5018935;28;20038;-79
2022/10/25 07:50:53;;;;;;;7.88;2.10;;;;;;;12.70;87.41;98772.25;4994753;28;20030;-78
2022/10/25 07:53:19;;;;;;;3.97;2.35;;;;;;;12.43;88.45;98768.94;5017511;28;20115;-78
2022/10/25 07:55:54;;;;;;;5.82;2.10;;;;;;;12.45;88.35;98772.97;5018853;28;20266;-80
2022/10/25 07:58:19;;;;;;;4.32;2.05;;;;;;;12.51;87.64;98773.81;5014353;28;20034;-79
2022/10/25 08:00:46;;;;;;;7.22;2.45;;;;;;;12.49;88.37;98775.94;5031622;28;20089;-78
2022/10/25 08:03:12;;;;;;;13.50;3.10;;;;;;;12.55;87.89;98791.78;5000623;28;20033;-79
2022/10/25 08:05:38;;;;;;;6.75;2.28;;;;;;;12.57;87.91;98783.47;5011021;28;20022;-79
2022/10/25 08:08:04;;;;;;;4.32;2.10;;;;;;;12.53;87.59;98783.19;5015612;28;20037;-78
2022/10/25 08:10:30;;;;;;;5.47;2.40;;;;;;;12.60;87.17;98785.63;4988852;28;20033;-78
2022/10/25 08:12:56;;;;;;;5.80;2.55;;;;;;;12.49;88.22;98792.78;4998010;28;20029;-79
2022/10/25 08:15:22;;;;;;;8.43;3.17;;;;;;;12.45;88.13;98802.41;5011837;28;20056;-79
2022/10/25 08:17:47;;;;;;;6.70;2.45;;;;;;;12.37;88.63;98791.41;4994599;28;20483;-78
2022/10/25 08:20:13;;;;;;;5.80;2.72;;;;;;;12.53;87.79;98795.78;5012569;28;20048;-79
2022/10/25 08:22:38;;;;;;;10.07;3.17;;;;;;;12.43;88.04;98812.59;4997220;28;20044;-79
2022/10/25 08:25:04;;;;;;;4.15;2.40;;;;;;;12.32;88.76;98802.91;5014880;28;20028;-78
2022/10/25 08:27:31;;;;;;;7.88;2.75;;;;;;;12.34;88.65;98813.34;5014949;28;20093;-78
2022/10/25 08:29:56;;;;;;;7.10;3.10;;;;;;;12.29;88.69;98805.28;5015602;28;20030;-79
2022/10/25 08:32:21;;;;;;;3.53;2.70;;;;;;;12.32;88.66;98813.59;5015208;28;20040;-78
2022/10/25 08:34:47;;;;;;;7.38;3.92;;;;;;;12.42;88.38;98815.53;4997280;28;20054;-78
2022/10/25 08:37:13;;;;;;;8.13;2.50;;;;;;;12.37;88.35;98807.47;5003056;28;20033;-78
2022/10/25 08:39:39;;;;;;;2.80;2.55;;;;;;;12.37;88.49;98812.81;5016201;28;20402;-79
2022/10/25 08:42:05;;;;;;;5.75;2.30;;;;;;;12.53;87.83;98811.84;4974133;28;20495;-79
2022/10/25 08:44:50;;;;;;;8.90;2.33;;;;;;;12.50;88.58;98820.38;5012523;28;20104;-78
2022/10/25 08:47:42;;;;;;;4.95;2.38;;;;;;;12.54;88.46;98819.59;5015849;28;20036;-78
2022/10/25 08:50:43;;;;;;;7.65;2.60;;;;;;;12.37;89.42;98824.34;5015526;28;20026;-78
2022/10/25 08:53:39;;;;;;;6.90;2.42;;;;;;;12.42;89.07;98829.72;5011357;28;20395;-78
2022/10/25 08:56:05;;;;;;;6.20;2.58;;;;;;;12.46;89.33;98830.00;4998043;28;20079;-79
2022/10/25 08:58:35;;;;;;;6.57;2.38;;;;;;;12.49;88.63;98824.13;5011792;28;20372;-78
2022/10/25 09:01:11;;;;;;;5.40;3.13;;;;;;;12.50;88.74;98823.88;5012807;28;20061;-78
2022/10/25 09:03:39;;;;;;;14.70;4.60;;;;;;;12.54;88.03;98832.16;5006071;28;20495;-78
2022/10/25 09:06:24;;;;;;;5.63;2.85;;;;;;;12.63;88.37;98831.41;4993598;28;20034;-79
2022/10/25 09:09:23;;;;;;;5.20;2.08;;;;;;;12.61;88.62;98836.22;5003857;28;20037;-79
2022/10/25 09:12:00;;;;;;;6.50;2.58;;;;;;;12.49;89.32;98832.16;5006780;28;20029;-79
2022/10/25 09:15:01;;;;;;;4.65;2.60;;;;;;;12.56;88.73;98840.75;5007266;28;20041;-79
2022/10/25 09:17:42;;;;;;;8.93;2.60;;;;;;;12.47;89.00;98840.44;5009880;28;20115;-80
2022/10/25 09:20:25;;;;;;;12.63;2.92;;;;;;;12.48;89.26;98833.22;5011692;28;20030;-79
2022/10/25 09:23:10;;;;;;;5.75;2.38;;;;;;;12.52;88.81;98850.38;5005508;28;20022;-78
2022/10/25 09:25:45;;;;;;;10.50;3.15;;;;;;;12.59;88.57;98859.78;5002880;28;20379;-79
2022/10/25 09:28:17;;;;;;;9.63;2.47;;;;;;;12.54;89.28;98858.94;5003741;28;20036;-80
2022/10/25 09:30:43;;;;;;;3.92;2.03;;;;;;;12.58;88.61;98852.81;5008128;28;20034;-79
2022/10/25 09:33:15;;;;;;;9.00;2.60;;;;;;;12.65;88.37;98861.41;5000867;28;20045;-79
2022/10/25 09:35:45;;;;;;;6.57;2.55;;;;;;;12.61;88.29;98868.38;5005849;28;20045;-79
2022/10/25 09:38:17;;;;;;;6.07;2.45;;;;;;;12.61;88.42;98857.66;5008885;28;20038;-79
2022/10/25 09:40:46;;;;;;;6.25;2.55;;;;;;;12.59;88.32;98875.03;5010700;28;20359;-78
2022/10/25 09:43:17;;;;;;;6.45;2.78;;;;;;;12.66;88.61;98863.03;4974944;28;20092;-78
2022/10/25 09:45:49;;;;;;;8.13;2.47;;;;;;;12.62;88.16;98869.19;4999023;28;20026;-79
2022/10/25 09:48:41;;;;;;;9.18;2.60;;;;;;;12.72;87.96;98878.06;5010019;28;20119;-79
2022/10/25 09:51:42;;;;;;;5.90;2.13;;;;;;;12.69;88.32;98869.72;5011608;28;20049;-79
2022/10/25 09:54:21;;;;;;;8.13;2.67;;;;;;;12.71;88.01;98878.31;5012475;28;20085;-80
2022/10/25 09:56:46;;;;;;;11.13;3.65;;;;;;;12.75;87.85;98874.84;5010903;28;20037;-80
2022/10/25 09:59:14;;;;;;;12.18;2.90;;;;;;;12.80;87.78;98877.53;4999470;28;20033;-80
2022/10/25 10:01:40;;;;;;;4.25;2.25;;;;;;;12.85;87.57;98879.44;5007875;28;20037;-79
2022/10/25 10:04:51;;;;;;;5.13;2.50;;;;;;;12.87;87.37;98879.16;5012303;28;20030;-78
2022/10/25 10:07:36;;;;;;;10.65;2.78;;;;;;;12.76;88.05;98876.47;4995635;28;20069;-78
2022/10/25 10:10:07;;;;;;;4.88;2.60;;;;;;;12.91;86.98;98874.94;4987474;28;20033;-80
2022/10/25 10:12:42;;;;;;;9.13;2.72;;;;;;;12.91;87.43;98882.97;5005451;28;20037;-79
2022/10/25 10:15:19;;;;;;;10.27;3.15;;;;;;;13.00;86.90;98873.31;5006284;28;20108;-80
2022/10/25 10:17:44;;;;;;;6.07;2.58;;;;;;;13.01;86.90;98878.44;5007133;28;20041;-79
2022/10/25 10:20:16;;;;;;;4.47;2.22;;;;;;;13.06;86.82;98883.81;5006335;28;20759;-79
2022/10/25 10:22:53;;;;;;;3.45;2.25;;;;;;;13.02;86.55;98887.28;5007368;28;20143;-80
2022/10/25 10:25:23;;;;;;;4.13;2.80;;;;;;;12.99;86.95;98898.53;5008433;28;20057;-80
2022/10/25 10:27:51;;;;;;;5.28;2.92;;;;;;;13.09;86.74;98894.03;5008170;28;20030;-79
2022/10/25 10:30:29;;;;;;;7.55;3.20;;;;;;;13.14;86.90;98883.34;5006610;28;20098;-79
2022/10/25 10:33:01;;;;;;;11.25;3.08;;;;;;;13.31;86.30;98883.91;4990754;28;20033;-80
2022/10/25 10:35:35;;;;;;;6.00;3.30;;;;;;;13.20;86.16;98882.28;5007801;28;20030;-78
2022/10/25 10:38:20;;;;;;;10.70;2.92;;;;;;;13.19;86.23;98890.59;4995842;28;20034;-80
2022/10/25 10:40:45;;;;;;;5.43;2.85;;;;;;;13.30;85.84;98879.59;5005726;28;20041;-80
2022/10/25 10:43:31;;;;;;;6.32;2.72;;;;;;;13.27;86.40;98880.16;4998265;28;20022;-79
2022/10/25 10:46:08;;;;;;;11.82;3.00;;;;;;;13.20;86.96;98876.09;5010159;28;20030;-78
2022/10/25 10:48:38;;;;;;;7.28;3.47;;;;;;;13.35;86.43;98884.97;5017509;28;20038;-77
2022/10/25 10:51:06;;;;;;;6.95;3.00;;;;;;;13.30;86.59;98881.50;5027412;28;20022;-78
2022/10/25 10:53:32;;;;;;;8.60;3.55;;;;;;;13.37;86.01;98882.84;5015731;28;20391;-79
2022/10/25 10:56:00;;;;;;;8.32;3.00;;;;;;;13.44;85.99;98887.94;5018178;28;20347;-80
2022/10/25 10:58:36;;;;;;;7.55;3.10;;;;;;;13.58;85.98;98877.50;4979540;28;20053;-79
2022/10/25 11:01:07;;;;;;;8.27;3.28;;;;;;;13.62;85.68;98887.44;4984550;28;20053;-79
2022/10/25 11:03:41;;;;;;;10.27;2.70;;;;;;;13.87;85.03;98886.66;5005689;28;20029;-80
2022/10/25 11:06:14;;;;;;;8.77;2.85;;;;;;;13.89;84.66;98889.88;4990486;28;20030;-79
2022/10/25 11:08:45;;;;;;;6.88;3.03;;;;;;;13.85;84.13;98884.22;5008024;28;20441;-79
2022/10/25 11:11:13;;;;;;;5.72;2.65;;;;;;;13.92;84.17;98897.38;5003921;28;20033;-79
2022/10/25 11:13:45;;;;;;;9.60;3.03;;;;;;;13.84;84.25;98890.69;4986666;28;20954;-79
2022/10/25 11:16:27;;;;;;;10.43;3.20;;;;;;;13.91;83.37;98899.25;5007440;28;20033;-79
2022/10/25 11:19:09;;;;;;;10.02;2.92;;;;;;;13.96;82.98;98896.56;5004337;28;20029;-79
2022/10/25 11:21:44;;;;;;;9.25;3.80;;;;;;;13.97;83.16;98908.94;4991100;28;20033;-79
2022/10/25 11:24:26;;;;;;;6.32;2.58;;;;;;;14.07;83.80;98906.22;5006426;28;20037;-79
2022/10/25 11:27:09;;;;;;;5.25;2.70;;;;;;;14.30;82.62;98906.78;5006184;28;20076;-79
2022/10/25 11:29:56;;;;;;;4.28;2.60;;;;;;;14.26;82.96;98898.44;4988156;28;20418;-80
2022/10/25 11:32:36;;;;;;;5.10;2.53;;;;;;;14.42;82.71;98905.41;5010108;28;20455;-79
2022/10/25 11:35:17;;;;;;;8.00;3.28;;;;;;;14.42;82.68;98900.03;4998269;28;20092;-79
2022/10/25 11:37:51;;;;;;;5.53;3.15;;;;;;;14.50;81.59;98907.56;5016350;28;20063;-81
2022/10/25 11:40:28;;;;;;;9.70;2.60;;;;;;;14.61;81.54;98913.72;5013716;28;20038;-80
2022/10/25 11:43:27;;;;;;;8.95;2.65;;;;;;;14.69;80.71;98916.63;5014276;28;20491;-80
2022/10/25 11:46:09;;;;;;;6.35;2.60;;;;;;;14.81;79.99;98908.25;5017946;28;20081;-79